Midland, Ohio
Current Conditions -  °F | °C
As of 5:54 PM on Friday 28 Nov 2014 (Local Time) from KILN Reporting Station
Clear Clear  
Wind Chill: 22°   Ceiling: Unl
Heat Index: 30°   Visibility: 10mi
Dew Point: 19°   Wind: 9mph
Humidity: 64%   Direction: 170°S
Pressure: 30.18"   Gusts: NA
Location:  39.31°N, 83.91°W
Report Text: KILN 282254Z AUTO 17008KT 10SM CLR M01/M07 A3018 RMK AO2 SLP250 T10111072
Loading
Personal Weather Stations






























Interactive Weather Map New forecast layout! Learn more

10-Day Weather Forecast

Advertisements
Track Severe Weather on mobile